createdAt,value
2019-03-15T00:00:29.758Z,98882.94
2019-03-15T00:02:59.126Z,98874.80
2019-03-15T00:05:27.855Z,98877.11
2019-03-15T00:07:57.187Z,98879.02
2019-03-15T00:10:26.511Z,98881.44
2019-03-15T00:12:55.949Z,98889.48
2019-03-15T00:15:25.285Z,98875.99
2019-03-15T00:17:54.614Z,98877.61
2019-03-15T00:20:36.212Z,98877.23
2019-03-15T00:23:04.838Z,98877.05
2019-03-15T00:25:34.154Z,98873.98
2019-03-15T00:28:03.519Z,98868.55
2019-03-15T00:30:32.962Z,98867.64
2019-03-15T00:33:02.385Z,98866.03
2019-03-15T00:35:31.677Z,98868.28
2019-03-15T00:38:01.022Z,98871.09
2019-03-15T00:40:30.346Z,98874.77
2019-03-15T00:42:59.672Z,98871.58
2019-03-15T00:45:29.000Z,98873.53
2019-03-15T00:47:58.422Z,98860.67
2019-03-15T00:50:27.768Z,98854.03
2019-03-15T00:52:57.103Z,98857.11
2019-03-15T00:55:26.421Z,98852.00
2019-03-15T00:57:55.763Z,98855.31
2019-03-15T01:00:25.108Z,98851.88
2019-03-15T01:02:54.421Z,98846.84
2019-03-15T01:05:23.765Z,98850.81
2019-03-15T01:07:53.157Z,98845.62
2019-03-15T01:10:22.462Z,98843.31
2019-03-15T01:12:51.811Z,98846.91
2019-03-15T01:15:21.131Z,98846.42
2019-03-15T01:17:50.482Z,98843.41
2019-03-15T01:20:19.811Z,98844.04
2019-03-15T01:22:49.129Z,98845.91
2019-03-15T01:25:18.515Z,98838.97
2019-03-15T01:27:47.863Z,98842.89
2019-03-15T01:30:17.192Z,98833.18
2019-03-15T01:32:46.516Z,98841.91
2019-03-15T01:35:15.202Z,98840.73
2019-03-15T01:37:44.551Z,98840.82
2019-03-15T01:40:13.870Z,98842.34
2019-03-15T01:42:43.184Z,98840.55
2019-03-15T01:45:12.968Z,98842.23
2019-03-15T01:47:42.274Z,98849.38
2019-03-15T01:50:11.605Z,98841.46
2019-03-15T01:52:40.979Z,98846.36
2019-03-15T01:55:10.423Z,98838.67
2019-03-15T01:57:39.739Z,98842.92
2019-03-15T02:00:09.627Z,98838.36
2019-03-15T02:02:38.989Z,98845.61
2019-03-15T02:05:08.421Z,98848.84
2019-03-15T02:07:37.764Z,98847.42
2019-03-15T02:10:07.238Z,98847.59
2019-03-15T02:12:36.610Z,98850.14
2019-03-15T02:15:18.725Z,98843.89
2019-03-15T02:17:48.084Z,98843.02
2019-03-15T02:20:17.454Z,98842.37
2019-03-15T02:22:46.779Z,98844.59
2019-03-15T02:25:16.103Z,98845.36
2019-03-15T02:27:45.438Z,98845.44
2019-03-15T02:30:14.758Z,98846.16
2019-03-15T02:32:44.113Z,98844.30
2019-03-15T02:35:13.483Z,98845.02
2019-03-15T02:37:42.834Z,98852.30
2019-03-15T02:40:12.899Z,98851.08
2019-03-15T02:43:01.439Z,98850.14
2019-03-15T02:45:30.809Z,98848.92
2019-03-15T02:48:00.135Z,98846.33
2019-03-15T02:50:29.619Z,98851.84
2019-03-15T02:52:59.012Z,98854.03
2019-03-15T02:55:28.333Z,98848.67
2019-03-15T02:57:57.666Z,98853.16
2019-03-15T03:00:26.233Z,98853.76
2019-03-15T03:02:55.555Z,98847.47
2019-03-15T03:05:24.884Z,98853.85
2019-03-15T03:07:54.207Z,98860.84
2019-03-15T03:10:23.677Z,98859.72
2019-03-15T03:12:53.005Z,98857.61
2019-03-15T03:15:22.349Z,98857.16
2019-03-15T03:17:51.682Z,98855.31
2019-03-15T03:20:21.343Z,98855.52
2019-03-15T03:23:10.269Z,98857.06
2019-03-15T03:25:39.620Z,98859.75
2019-03-15T03:28:09.057Z,98861.55
2019-03-15T03:30:38.472Z,98856.55
2019-03-15T03:33:07.802Z,98864.08
2019-03-15T03:35:37.136Z,98864.99
2019-03-15T03:38:06.471Z,98864.92
2019-03-15T03:40:35.807Z,98871.52
2019-03-15T03:43:05.137Z,98865.45
2019-03-15T03:45:34.555Z,98866.00
2019-03-15T03:48:03.893Z,98866.64
2019-03-15T03:50:33.343Z,98870.46
2019-03-15T03:53:02.664Z,98864.00
2019-03-15T03:55:32.065Z,98862.61
2019-03-15T03:58:02.385Z,98871.64
2019-03-15T04:06:36.198Z,98870.69
2019-03-15T04:09:07.376Z,98872.02
2019-03-15T04:11:35.912Z,98869.62
2019-03-15T04:14:05.256Z,98870.17
2019-03-15T04:16:34.598Z,98866.77
2019-03-15T04:19:04.032Z,98872.61
2019-03-15T04:21:33.385Z,98873.76
2019-03-15T04:24:02.869Z,98873.70
2019-03-15T04:26:32.203Z,98873.21
2019-03-15T04:29:01.543Z,98876.70
2019-03-15T04:31:30.880Z,98877.02
2019-03-15T04:34:00.213Z,98875.55
2019-03-15T04:36:29.530Z,98877.00
2019-03-15T04:38:58.072Z,98884.16
2019-03-15T04:41:27.400Z,98881.02
2019-03-15T04:43:56.720Z,98889.02
2019-03-15T04:46:26.161Z,98889.47
2019-03-15T04:48:55.531Z,98879.99
2019-03-15T04:51:24.857Z,98889.48
2019-03-15T04:53:54.190Z,98889.85
2019-03-15T04:56:23.515Z,98896.27
2019-03-15T04:58:52.853Z,98893.87
2019-03-15T05:01:22.189Z,98904.28
2019-03-15T05:03:51.516Z,98898.94
2019-03-15T05:06:20.887Z,98904.19
2019-03-15T05:08:50.207Z,98907.73
2019-03-15T05:11:19.533Z,98910.88
2019-03-15T05:13:48.850Z,98913.25
2019-03-15T05:16:18.224Z,98914.34
2019-03-15T05:18:47.552Z,98914.64
2019-03-15T05:21:16.911Z,98916.57
2019-03-15T05:23:46.259Z,98920.19
2019-03-15T05:26:15.591Z,98925.22
2019-03-15T05:28:44.924Z,98918.65
2019-03-15T05:31:14.249Z,98921.05
2019-03-15T05:33:42.812Z,98916.03
2019-03-15T05:36:12.232Z,98920.73
2019-03-15T05:38:41.588Z,98927.63
2019-03-15T05:41:10.902Z,98920.02
2019-03-15T05:43:40.234Z,98924.05
2019-03-15T05:46:08.759Z,98928.95
2019-03-15T05:48:38.120Z,98929.14
2019-03-15T05:51:07.455Z,98928.26
2019-03-15T05:53:36.802Z,98933.37
2019-03-15T05:56:06.168Z,98928.95
2019-03-15T05:58:34.703Z,98936.11
2019-03-15T06:01:04.267Z,98940.85
2019-03-15T06:03:47.518Z,98942.59
2019-03-15T06:06:22.868Z,98940.60
2019-03-15T06:08:52.245Z,98944.13
2019-03-15T06:11:21.598Z,98940.45
2019-03-15T06:13:50.906Z,98950.02
2019-03-15T06:16:20.241Z,98945.95
2019-03-15T06:18:49.576Z,98950.23
2019-03-15T06:21:18.894Z,98951.16
2019-03-15T06:23:48.229Z,98950.60
2019-03-15T06:26:17.583Z,98958.41
2019-03-15T06:28:46.921Z,98954.16
2019-03-15T06:31:16.288Z,98952.86
2019-03-15T06:33:45.654Z,98950.48
2019-03-15T06:36:15.016Z,98956.15
2019-03-15T06:38:44.368Z,98965.94
2019-03-15T06:41:14.565Z,98968.84
2019-03-15T06:44:03.072Z,98968.64
2019-03-15T06:46:32.417Z,98970.70
2019-03-15T06:49:01.742Z,98976.98
2019-03-15T06:51:31.094Z,98975.19
2019-03-15T06:54:10.958Z,98975.51
2019-03-15T06:56:49.729Z,98981.90
2019-03-15T06:59:19.071Z,98986.55
2019-03-15T07:01:48.420Z,98982.82
2019-03-15T07:04:17.735Z,98992.28
2019-03-15T07:06:47.149Z,98988.59
2019-03-15T07:09:16.472Z,98993.09
2019-03-15T07:11:45.808Z,98986.97
2019-03-15T07:14:15.975Z,98993.13
2019-03-15T07:16:44.707Z,98996.08
2019-03-15T07:19:25.689Z,98999.41
2019-03-15T07:22:03.304Z,98992.20
2019-03-15T07:24:44.288Z,98988.59
2019-03-15T07:27:13.593Z,98994.90
2019-03-15T07:30:02.113Z,98994.50
2019-03-15T07:32:31.459Z,98995.84
2019-03-15T07:35:00.850Z,98989.56
2019-03-15T07:37:30.217Z,98994.28
2019-03-15T07:39:59.610Z,98993.04
2019-03-15T07:42:29.016Z,98989.22
2019-03-15T07:44:58.386Z,98982.31
2019-03-15T07:47:27.741Z,98996.03
2019-03-15T07:52:58.385Z,98992.36
2019-03-15T07:55:27.744Z,98996.75
2019-03-15T08:01:00.108Z,99006.11
2019-03-15T08:03:29.446Z,99010.77
2019-03-15T08:05:58.783Z,99004.17
2019-03-15T08:08:28.215Z,98999.20
2019-03-15T08:10:57.605Z,99000.13
2019-03-15T08:13:27.528Z,98997.84
2019-03-15T08:15:56.884Z,99003.75
2019-03-15T08:18:26.206Z,99000.11
2019-03-15T08:20:55.562Z,98999.67
2019-03-15T08:23:24.172Z,98996.93
2019-03-15T08:25:53.521Z,98999.27
2019-03-15T08:28:22.955Z,98990.58
2019-03-15T08:30:52.270Z,98997.84
2019-03-15T08:33:20.913Z,98992.02
2019-03-15T08:35:50.242Z,98996.72
2019-03-15T08:38:19.581Z,98992.56
2019-03-15T08:40:48.952Z,98995.59
2019-03-15T08:43:18.287Z,98994.13
2019-03-15T08:45:47.625Z,98997.27
2019-03-15T08:48:17.031Z,98991.33
2019-03-15T08:50:46.325Z,98990.12
2019-03-15T08:53:15.669Z,98985.94
2019-03-15T08:55:45.026Z,98990.23
2019-03-15T08:58:21.367Z,98991.02
2019-03-15T09:01:03.704Z,98994.17
2019-03-15T09:03:34.490Z,98990.66
2019-03-15T09:06:22.295Z,98990.77
2019-03-15T09:08:51.637Z,98989.03
2019-03-15T09:11:20.976Z,98986.09
2019-03-15T09:13:50.324Z,98976.91
2019-03-15T09:16:19.685Z,98979.64
2019-03-15T09:18:49.046Z,98978.07
2019-03-15T09:21:18.392Z,98971.73
2019-03-15T09:23:47.736Z,98969.41
2019-03-15T09:26:17.192Z,98967.13
2019-03-15T09:28:46.522Z,98976.88
2019-03-15T09:31:15.122Z,98972.47
2019-03-15T09:33:44.569Z,98974.27
2019-03-15T09:36:13.898Z,98976.47
2019-03-15T09:38:43.231Z,98974.52
2019-03-15T09:41:12.580Z,98971.64
2019-03-15T09:43:53.633Z,98965.47
2019-03-15T09:46:22.184Z,98959.34
2019-03-15T09:48:51.509Z,98964.87
2019-03-15T09:51:20.844Z,98954.73
2019-03-15T09:53:50.186Z,98953.78
2019-03-15T09:56:19.532Z,98957.00
2019-03-15T09:58:48.859Z,98953.78
2019-03-15T10:01:34.189Z,98952.10
2019-03-15T10:04:07.545Z,98947.50
2019-03-15T10:06:37.009Z,98950.58
2019-03-15T10:09:06.739Z,98936.90
2019-03-15T10:11:36.091Z,98937.95
2019-03-15T10:14:05.490Z,98937.73
2019-03-15T10:16:34.862Z,98934.52
2019-03-15T10:19:03.454Z,98936.37
2019-03-15T10:21:32.797Z,98930.59
2019-03-15T10:24:01.528Z,98937.40
2019-03-15T10:26:30.872Z,98930.96
2019-03-15T10:29:00.229Z,98928.36
2019-03-15T10:31:29.577Z,98926.58
2019-03-15T10:33:58.943Z,98922.34
2019-03-15T10:36:28.302Z,98923.70
2019-03-15T10:38:57.746Z,98929.97
2019-03-15T10:47:12.281Z,98917.71
2019-03-15T10:52:43.201Z,98916.52
2019-03-15T10:58:14.339Z,98913.61
2019-03-15T11:03:45.189Z,98904.19
2019-03-15T11:09:16.425Z,98901.86
2019-03-15T11:11:45.805Z,98884.21
2019-03-15T11:17:16.802Z,98900.79
2019-03-15T11:22:47.812Z,98879.48
2019-03-15T11:25:17.160Z,98881.80
2019-03-15T11:30:28.732Z,98876.98
2019-03-15T11:32:58.213Z,98865.14
2019-03-15T11:35:27.577Z,98864.83
2019-03-15T11:37:56.938Z,98867.80
2019-03-15T11:40:26.308Z,98867.47
2019-03-15T11:42:55.672Z,98862.41
2019-03-15T11:45:25.045Z,98859.61
2019-03-15T11:48:03.288Z,98857.14
2019-03-15T11:50:43.628Z,98855.14
2019-03-15T11:53:12.992Z,98849.02
2019-03-15T11:58:25.881Z,98850.14
2019-03-15T12:01:06.573Z,98848.53
2019-03-15T12:03:35.238Z,98845.82
2019-03-15T12:09:07.109Z,98853.23
2019-03-15T12:14:41.172Z,98844.53
2019-03-15T12:20:11.616Z,98845.91
2019-03-15T12:22:40.942Z,98849.08
2019-03-15T12:28:12.191Z,98842.77
2019-03-15T12:30:43.009Z,98842.24
2019-03-15T12:33:30.807Z,98838.93
2019-03-15T12:36:03.224Z,98840.65
2019-03-15T12:38:49.472Z,98847.38
2019-03-15T12:44:21.661Z,98841.44
2019-03-15T12:46:50.989Z,98843.69
2019-03-15T12:49:20.343Z,98845.45
2019-03-15T12:52:02.150Z,98848.34
2019-03-15T12:57:33.690Z,98855.75
2019-03-15T13:00:03.821Z,98847.98
2019-03-15T13:05:36.154Z,98859.22
2019-03-15T13:08:05.489Z,98854.94
2019-03-15T13:10:34.924Z,98855.02
2019-03-15T13:13:04.628Z,98856.51
2019-03-15T13:15:33.998Z,98868.75
2019-03-15T13:18:03.338Z,98861.32
2019-03-15T13:20:32.689Z,98859.36
2019-03-15T13:23:02.192Z,98858.50
2019-03-15T13:25:31.653Z,98859.47
2019-03-15T13:28:01.011Z,98866.56
2019-03-15T13:30:30.352Z,98863.05
2019-03-15T13:32:59.693Z,98862.75
2019-03-15T13:35:29.030Z,98852.97
2019-03-15T13:37:58.383Z,98858.33
2019-03-15T13:40:27.869Z,98857.83
2019-03-15T13:49:02.792Z,98854.44
2019-03-15T13:51:32.117Z,98853.83
2019-03-15T13:54:01.460Z,98849.95
2019-03-15T13:56:30.809Z,98851.86
2019-03-15T13:59:00.207Z,98853.50
2019-03-15T14:01:29.582Z,98858.17
2019-03-15T14:03:58.932Z,98858.37
2019-03-15T14:06:28.292Z,98861.44
2019-03-15T14:08:57.661Z,98864.19
2019-03-15T14:11:27.031Z,98856.59
2019-03-15T14:13:56.408Z,98859.83
2019-03-15T14:16:25.753Z,98863.73
2019-03-15T14:21:57.361Z,98864.66
2019-03-15T14:24:38.838Z,98861.55
2019-03-15T14:27:07.357Z,98863.91
2019-03-15T14:29:36.726Z,98853.89
2019-03-15T14:32:06.987Z,98863.34
2019-03-15T14:34:55.287Z,98863.52
2019-03-15T14:37:24.630Z,98860.70
2019-03-15T14:39:54.273Z,98854.63
2019-03-15T14:42:23.623Z,98856.61
2019-03-15T14:44:53.024Z,98861.42
2019-03-15T14:47:22.455Z,98861.44
2019-03-15T14:49:51.942Z,98865.45
2019-03-15T14:52:21.286Z,98869.51
2019-03-15T14:54:50.614Z,98869.25
2019-03-15T14:57:19.936Z,98872.51
2019-03-15T14:59:49.277Z,98872.70
2019-03-15T15:02:18.647Z,98873.20
2019-03-15T15:04:47.974Z,98879.99
2019-03-15T15:07:17.315Z,98877.91
2019-03-15T15:09:47.623Z,98877.42
2019-03-15T15:12:35.982Z,98877.72
2019-03-15T15:15:19.124Z,98881.47
2019-03-15T15:20:51.335Z,98887.77
2019-03-15T15:23:20.716Z,98890.41
2019-03-15T15:25:50.055Z,98891.50
2019-03-15T15:28:19.383Z,98890.44
2019-03-15T15:33:51.576Z,98904.48
2019-03-15T15:36:20.931Z,98896.83
2019-03-15T15:38:50.312Z,98902.87
2019-03-15T15:41:19.627Z,98911.28
2019-03-15T15:43:49.003Z,98904.92
2019-03-15T15:49:01.939Z,98914.88
2019-03-15T15:51:31.400Z,98915.23
2019-03-15T15:54:00.743Z,98914.26
2019-03-15T15:56:30.090Z,98917.66
2019-03-15T15:58:59.404Z,98926.69
2019-03-15T16:01:28.739Z,98930.84
2019-03-15T16:03:58.057Z,98928.22
2019-03-15T16:06:27.415Z,98933.94
2019-03-15T16:08:56.751Z,98936.81
2019-03-15T16:14:28.699Z,98948.02
2019-03-15T16:20:00.386Z,98944.22
2019-03-15T16:22:49.404Z,98951.27
2019-03-15T16:25:18.728Z,98965.92
2019-03-15T16:27:48.059Z,98970.57
2019-03-15T16:30:17.400Z,98971.69
2019-03-15T16:32:46.799Z,98968.67
2019-03-15T16:38:18.080Z,98979.59
2019-03-15T16:40:47.411Z,98978.38
2019-03-15T16:43:16.773Z,98983.36
2019-03-15T16:45:46.108Z,98992.17
2019-03-15T16:54:20.501Z,98997.94
2019-03-15T16:56:49.852Z,98998.02
2019-03-15T16:59:19.844Z,99008.06
2019-03-15T17:01:48.491Z,99009.48
2019-03-15T17:07:20.373Z,99014.11
2019-03-15T17:09:49.719Z,99017.42
2019-03-15T17:12:19.134Z,99016.64
2019-03-15T17:14:48.492Z,99021.23
2019-03-15T17:20:20.474Z,99036.56
2019-03-15T17:22:49.925Z,99037.42
2019-03-15T17:25:18.562Z,99053.00
2019-03-15T17:27:48.268Z,99051.69
2019-03-15T17:30:17.625Z,99054.53
2019-03-15T17:32:47.081Z,99057.24
2019-03-15T17:35:16.570Z,99060.41
2019-03-15T17:37:45.908Z,99058.38
2019-03-15T17:40:15.295Z,99058.38
2019-03-15T17:42:44.703Z,99064.05
2019-03-15T17:45:14.056Z,99070.44
2019-03-15T17:47:43.501Z,99073.58
2019-03-15T17:50:14.023Z,99080.22
2019-03-15T17:55:45.549Z,99085.84
2019-03-15T17:58:14.893Z,99095.20
2019-03-15T18:00:45.135Z,99095.06
2019-03-15T18:03:26.754Z,99103.09
2019-03-15T18:05:55.318Z,99105.42
2019-03-15T18:08:24.666Z,99109.47
2019-03-15T18:16:39.722Z,99125.22
2019-03-15T18:19:09.232Z,99131.63
2019-03-15T18:21:39.043Z,99137.68
2019-03-15T18:24:08.447Z,99138.70
2019-03-15T18:26:37.871Z,99142.86
2019-03-15T18:29:07.301Z,99145.00
2019-03-15T18:31:36.675Z,99143.62
2019-03-15T18:47:14.265Z,99160.45
2019-03-15T18:49:43.618Z,99166.69
2019-03-15T18:52:12.962Z,99168.02
2019-03-15T18:54:42.296Z,99172.69
2019-03-15T18:57:11.632Z,99180.41
2019-03-15T18:59:41.149Z,99181.59
2019-03-15T19:02:10.526Z,99182.36
2019-03-15T19:04:39.898Z,99190.53
2019-03-15T19:07:09.258Z,99186.55
2019-03-15T19:09:38.642Z,99191.70
2019-03-15T19:12:08.014Z,99201.05
2019-03-15T19:14:37.501Z,99205.28
2019-03-15T19:17:06.943Z,99205.50
2019-03-15T19:19:36.339Z,99209.36
2019-03-15T19:22:05.787Z,99203.03
2019-03-15T19:24:35.186Z,99207.95
2019-03-15T19:27:04.122Z,99205.93
2019-03-15T19:29:33.508Z,99201.19
2019-03-15T19:32:03.111Z,99213.52
2019-03-15T19:34:32.583Z,99212.34
2019-03-15T19:37:02.129Z,99206.51
2019-03-15T19:39:31.643Z,99213.28
2019-03-15T19:42:01.223Z,99214.46
2019-03-15T19:44:30.662Z,99219.86
2019-03-15T19:47:00.077Z,99214.02
2019-03-15T19:49:29.475Z,99221.63
2019-03-15T19:51:58.852Z,99224.34
2019-03-15T19:54:31.684Z,99223.95
2019-03-15T19:57:17.713Z,99227.72
2019-03-15T19:59:47.112Z,99226.13
2019-03-15T20:02:16.687Z,99228.88
2019-03-15T20:04:46.028Z,99233.91
2019-03-15T20:07:14.723Z,99246.52
2019-03-15T20:09:44.135Z,99238.30
2019-03-15T20:12:13.569Z,99245.00
2019-03-15T20:14:43.000Z,99242.77
2019-03-15T20:17:12.345Z,99240.88
2019-03-15T20:19:41.673Z,99248.69
2019-03-15T20:22:11.003Z,99250.31
2019-03-15T20:24:40.347Z,99250.21
2019-03-15T20:27:09.672Z,99248.66
2019-03-15T20:29:39.017Z,99239.61
2019-03-15T20:32:08.340Z,99240.06
2019-03-15T20:34:37.678Z,99242.44
2019-03-15T20:37:07.026Z,99241.91
2019-03-15T20:39:36.366Z,99244.95
2019-03-15T20:42:05.706Z,99250.00
2019-03-15T20:44:35.043Z,99243.70
2019-03-15T20:47:04.417Z,99240.39
2019-03-15T20:49:36.286Z,99239.39
2019-03-15T20:52:22.291Z,99245.22
2019-03-15T20:54:51.638Z,99239.37
2019-03-15T20:57:21.027Z,99229.23
2019-03-15T20:59:50.350Z,99228.46
2019-03-15T21:02:19.756Z,99223.95
2019-03-15T21:04:49.076Z,99228.59
2019-03-15T21:07:18.405Z,99225.98
2019-03-15T21:09:47.761Z,99222.81
2019-03-15T21:12:17.097Z,99229.25
2019-03-15T21:14:46.450Z,99234.28
2019-03-15T21:17:15.767Z,99232.61
2019-03-15T21:19:45.111Z,99238.34
2019-03-15T21:22:14.424Z,99249.62
2019-03-15T21:24:43.772Z,99256.68
2019-03-15T21:27:13.129Z,99242.56
2019-03-15T21:29:42.576Z,99244.88
2019-03-15T21:32:12.013Z,99262.51
2019-03-15T21:34:41.460Z,99264.95
2019-03-15T21:37:10.805Z,99265.36
2019-03-15T21:42:55.178Z,99260.41
2019-03-15T21:48:25.966Z,99249.58
2019-03-15T21:50:55.295Z,99251.31
2019-03-15T21:53:24.621Z,99244.42
2019-03-15T21:55:53.957Z,99250.04
2019-03-15T21:58:23.308Z,99258.83
2019-03-15T22:01:02.252Z,99259.97
2019-03-15T22:03:41.891Z,99259.56
2019-03-15T22:06:11.224Z,99254.84
2019-03-15T22:08:40.591Z,99267.31
2019-03-15T22:11:20.560Z,99264.54
2019-03-15T22:13:59.250Z,99261.02
2019-03-15T22:16:28.597Z,99273.20
2019-03-15T22:18:57.931Z,99263.69
2019-03-15T22:21:27.298Z,99257.34
2019-03-15T22:23:56.623Z,99256.90
2019-03-15T22:26:25.978Z,99263.28
2019-03-15T22:28:55.307Z,99262.86
2019-03-15T22:31:24.641Z,99248.76
2019-03-15T22:36:49.405Z,99259.58
2019-03-15T22:42:20.895Z,99257.58
2019-03-15T22:44:50.252Z,99261.92
2019-03-15T22:47:19.615Z,99258.12
2019-03-15T22:49:48.956Z,99255.09
2019-03-15T22:52:18.315Z,99256.34
2019-03-15T22:57:59.307Z,99256.95
2019-03-15T23:00:39.262Z,99268.35
2019-03-15T23:03:08.601Z,99265.78
2019-03-15T23:05:37.929Z,99266.81
2019-03-15T23:08:07.265Z,99263.39
2019-03-15T23:10:36.603Z,99262.88
2019-03-15T23:13:05.913Z,99259.04
2019-03-15T23:15:35.246Z,99258.21
2019-03-15T23:18:04.599Z,99260.34
2019-03-15T23:20:33.955Z,99263.95
2019-03-15T23:23:03.284Z,99260.87
2019-03-15T23:25:32.628Z,99266.91
2019-03-15T23:28:01.965Z,99261.28
2019-03-15T23:30:31.356Z,99261.33
2019-03-15T23:33:00.675Z,99263.69
2019-03-15T23:35:30.017Z,99264.49
2019-03-15T23:37:59.334Z,99269.37
2019-03-15T23:40:28.668Z,99261.93
2019-03-15T23:42:58.002Z,99263.43
2019-03-15T23:45:27.320Z,99265.27
2019-03-15T23:47:56.661Z,99265.03
2019-03-15T23:53:28.025Z,99264.91
2019-03-15T23:55:57.438Z,99258.59
2019-03-15T23:58:26.795Z,99250.45
